Shanksville, Pennsylvania
Current Conditions -  °F | °C
As of 4:54 PM on Thursday 23 Oct 2014 (Local Time) from KJST Reporting Station
Few Clouds Few Clouds  
Wind Chill: 56°   Ceiling: Unl
Heat Index: 56°   Visibility: 10mi
Dew Point: 38°   Wind: 20mph
Humidity: 51%   Direction: 310°NW
Pressure: 29.98"   Gusts: NA
Location:  40.02°N, 78.91°W
Report Text: KJST 232054Z AUTO 31017KT 10SM FEW043 13/03 A2998 RMK AO2 PK WND 31029/1957 SLP158 T01330033 55003
Loading
Personal Weather Stations






























Interactive Weather Map
Tropical Storm Tracking
New forecast layout! Learn more

10-Day Weather Forecast

Advertisements
Track Severe Weather on mobile